Time;durP1;ratioP1;P1;durP2;ratioP2;P2;SDS_P1;SDS_P2;PMS_P1;PMS_P2;Temp;Humidity;BMP_temperature;BMP_pressure;BME280_temperature;BME280_humidity;BME280_pressure;Samples;Min_cycle;Max_cycle;Signal;HPM_P1;HPM_P2
2022/08/20 00:01:00;;;;;;;13.98;8.80;;;17.50;99.90;;;;;;6156961;23;20438;-79
2022/08/20 00:03:27;;;;;;;16.95;8.82;;;17.50;99.90;;;;;;6155245;23;20013;-78
2022/08/20 00:06:07;;;;;;;13.43;8.70;;;17.50;99.90;;;;;;6156901;23;20001;-78
2022/08/20 00:08:33;;;;;;;11.70;8.60;;;17.50;99.90;;;;;;6155411;23;20035;-79
2022/08/20 00:10:59;;;;;;;13.90;9.52;;;17.50;99.90;;;;;;6154928;23;20066;-79
2022/08/20 00:13:33;;;;;;;11.75;8.80;;;17.50;99.90;;;;;;6155120;23;20453;-78
2022/08/20 00:15:58;;;;;;;15.77;8.35;;;17.40;99.90;;;;;;6130753;23;20005;-78
2022/08/20 00:18:25;;;;;;;15.63;9.07;;;17.40;99.90;;;;;;6156259;23;20049;-78
2022/08/20 00:20:53;;;;;;;16.35;7.93;;;17.40;99.90;;;;;;6130234;23;20059;-78
2022/08/20 00:23:19;;;;;;;20.55;9.23;;;17.30;99.90;;;;;;6130228;23;20059;-79
2022/08/20 00:25:46;;;;;;;15.73;8.30;;;17.30;99.90;;;;;;6130385;23;20010;-79
2022/08/20 00:28:12;;;;;;;14.93;9.18;;;17.30;99.90;;;;;;6155008;23;20465;-78
2022/08/20 00:30:40;;;;;;;11.25;8.00;;;17.30;99.90;;;;;;6155221;23;20036;-79
2022/08/20 00:33:09;;;;;;;13.60;8.18;;;17.30;99.90;;;;;;6156407;23;20081;-79
2022/08/20 00:35:38;;;;;;;16.08;8.40;;;17.30;99.90;;;;;;6130478;23;20013;-79
2022/08/20 00:38:05;;;;;;;15.27;9.32;;;17.30;99.90;;;;;;6130105;23;20014;-79
2022/08/20 00:40:39;;;;;;;13.82;9.40;;;17.20;99.90;;;;;;6130158;23;20009;-79
2022/08/20 00:43:22;;;;;;;12.48;8.50;;;17.10;99.90;;;;;;6154387;23;20084;-78
2022/08/20 00:50:11;;;;;;;13.68;8.25;;;17.10;99.90;;;;;;6156866;23;20532;-79
2022/08/20 00:52:40;;;;;;;11.50;8.23;;;17.00;99.90;;;;;;6130401;23;20025;-79
2022/08/20 00:55:07;;;;;;;12.38;8.20;;;16.90;99.90;;;;;;6154511;23;20009;-78
2022/08/20 00:57:38;;;;;;;14.73;7.88;;;16.90;99.90;;;;;;6130399;23;20009;-78
2022/08/20 01:00:07;;;;;;;;;;;16.80;99.90;;;;;;6130809;23;20060;-78
2022/08/20 01:02:33;;;;;;;17.73;8.30;;;16.80;99.90;;;;;;6130273;23;19975;-78
2022/08/20 01:05:00;;;;;;;13.43;8.05;;;16.80;99.90;;;;;;6156011;23;19997;-79
2022/08/20 01:07:33;;;;;;;12.40;8.68;;;16.80;99.90;;;;;;6156041;23;20762;-79
2022/08/20 01:10:15;;;;;;;12.93;8.52;;;16.80;99.90;;;;;;6154588;23;20002;-78
2022/08/20 01:13:02;;;;;;;;;;;16.90;99.90;;;;;;6156540;23;20014;-78
2022/08/20 01:15:30;;;;;;;9.05;7.47;;;16.80;99.90;;;;;;6129698;23;19904;-78
2022/08/20 01:17:59;;;;;;;12.23;8.02;;;16.80;99.90;;;;;;6153630;23;20012;-79
2022/08/20 01:20:30;;;;;;;17.05;8.85;;;16.80;99.90;;;;;;6129408;23;20068;-78
2022/08/20 01:23:29;;;;;;;12.57;8.23;;;16.80;99.90;;;;;;6154320;23;20098;-78
2022/08/20 01:26:16;;;;;;;12.30;8.00;;;16.70;99.90;;;;;;6154202;23;20036;-78
2022/08/20 01:28:46;;;;;;;12.93;8.00;;;16.70;99.90;;;;;;6154140;23;20578;-78
2022/08/20 01:31:15;;;;;;;14.10;7.75;;;16.70;99.90;;;;;;6155615;23;20088;-79
2022/08/20 01:33:41;;;;;;;17.67;8.45;;;16.60;99.90;;;;;;6153679;23;20088;-78
2022/08/20 01:36:08;;;;;;;12.02;7.95;;;16.60;99.90;;;;;;6154253;23;20048;-78
2022/08/20 01:38:35;;;;;;;20.52;8.25;;;16.60;99.90;;;;;;6155787;23;20002;-79
2022/08/20 01:41:22;;;;;;;13.30;8.07;;;16.80;99.90;;;;;;6129296;23;20013;-79
2022/08/20 01:43:55;;;;;;;12.02;7.93;;;16.80;99.90;;;;;;6129051;23;20681;-78
2022/08/20 01:46:25;;;;;;;14.27;8.15;;;16.90;99.90;;;;;;6153933;23;20446;-78
2022/08/20 01:48:53;;;;;;;13.55;7.53;;;16.90;99.90;;;;;;6155483;23;20339;-78
2022/08/20 01:51:23;;;;;;;12.88;7.60;;;16.90;99.90;;;;;;6154349;23;20014;-79
2022/08/20 01:53:52;;;;;;;17.03;8.43;;;16.90;99.90;;;;;;6154378;23;20005;-78
2022/08/20 01:56:22;;;;;;;10.93;7.75;;;16.80;99.90;;;;;;6129838;23;20113;-79
2022/08/20 01:58:52;;;;;;;10.10;8.05;;;16.80;99.90;;;;;;6154419;23;20010;-79
2022/08/20 02:01:25;;;;;;;14.82;7.53;;;16.70;99.90;;;;;;6129652;23;20052;-78
2022/08/20 02:03:52;;;;;;;10.73;8.55;;;16.70;99.90;;;;;;6129420;23;20061;-78
2022/08/20 02:06:24;;;;;;;15.98;9.30;;;16.60;99.90;;;;;;6155537;23;20466;-78
2022/08/20 02:09:09;;;;;;;19.60;8.93;;;16.60;99.90;;;;;;6154364;23;20006;-79
2022/08/20 02:11:36;;;;;;;15.77;7.88;;;16.60;99.90;;;;;;6129963;23;20014;-78
2022/08/20 02:14:05;;;;;;;10.98;8.10;;;16.60;99.90;;;;;;6155423;23;20009;-79
2022/08/20 02:16:35;;;;;;;10.98;8.00;;;16.60;99.90;;;;;;6154175;23;20006;-78
2022/08/20 02:19:11;;;;;;;19.15;8.90;;;16.70;99.90;;;;;;6154031;23;20016;-79
2022/08/20 02:21:41;;;;;;;14.55;8.50;;;16.70;99.90;;;;;;6128964;23;20015;-79
2022/08/20 02:24:08;;;;;;;12.60;7.65;;;16.70;99.90;;;;;;6129001;23;20013;-78
2022/08/20 02:26:36;;;;;;;15.25;8.48;;;16.70;99.90;;;;;;6153814;23;20009;-79
2022/08/20 02:29:06;;;;;;;13.38;9.27;;;16.80;99.90;;;;;;6153825;23;20064;-78
2022/08/20 02:31:33;;;;;;;12.40;8.20;;;16.80;99.90;;;;;;6129565;23;20002;-78
2022/08/20 02:33:59;;;;;;;17.45;8.98;;;16.80;99.90;;;;;;6153898;23;20014;-79
2022/08/20 02:36:26;;;;;;;15.57;8.45;;;16.80;99.90;;;;;;6155784;23;20012;-79
2022/08/20 02:38:52;;;;;;;10.77;7.78;;;16.80;99.90;;;;;;6155956;23;20092;-78
2022/08/20 02:41:20;;;;;;;11.35;8.35;;;16.80;99.90;;;;;;6154187;23;20442;-78
2022/08/20 02:43:46;;;;;;;14.43;8.63;;;16.70;99.90;;;;;;6129207;23;20363;-78
2022/08/20 02:46:14;;;;;;;15.27;8.13;;;16.80;99.90;;;;;;6154162;23;20009;-79
2022/08/20 02:48:41;;;;;;;9.80;7.07;;;16.90;99.90;;;;;;6155423;23;20009;-79
2022/08/20 02:51:07;;;;;;;12.15;7.72;;;16.90;99.90;;;;;;6153834;23;20009;-79
2022/08/20 02:53:36;;;;;;;11.43;7.18;;;17.00;99.90;;;;;;6129094;23;20008;-78
2022/08/20 02:56:04;;;;;;;13.45;7.93;;;17.00;99.90;;;;;;6154618;23;20033;-79
2022/08/20 02:58:30;;;;;;;11.80;7.45;;;17.00;99.90;;;;;;6128982;23;20010;-79
2022/08/20 03:00:56;;;;;;;15.60;8.68;;;16.90;99.90;;;;;;6153793;23;20024;-79
2022/08/20 03:03:22;;;;;;;13.13;7.88;;;16.90;99.90;;;;;;6129008;23;20040;-79
2022/08/20 03:09:35;;;;;;;13.43;7.75;;;16.80;99.90;;;;;;6154930;23;20080;-79
2022/08/20 03:12:02;;;;;;;15.50;8.65;;;16.90;99.90;;;;;;6128677;23;20009;-79
2022/08/20 03:14:29;;;;;;;14.05;7.82;;;17.00;99.90;;;;;;6153063;23;20092;-79
2022/08/20 03:16:55;;;;;;;12.43;8.45;;;17.00;99.90;;;;;;6129204;23;20081;-78
2022/08/20 03:19:27;;;;;;;13.32;7.72;;;17.00;99.90;;;;;;6128903;23;20040;-79
2022/08/20 03:21:53;;;;;;;17.15;8.23;;;16.90;99.90;;;;;;6155235;23;20004;-79
2022/08/20 03:24:19;;;;;;;10.57;8.05;;;16.90;99.90;;;;;;6128735;23;20017;-79
2022/08/20 03:26:46;;;;;;;12.93;8.15;;;17.00;99.90;;;;;;6128448;23;20075;-79
2022/08/20 03:29:12;;;;;;;12.10;8.20;;;17.00;99.90;;;;;;6156492;23;20480;-79
2022/08/20 03:31:38;;;;;;;11.05;8.52;;;17.00;99.90;;;;;;6157265;23;20001;-79
2022/08/20 03:34:04;;;;;;;17.90;8.10;;;17.00;99.90;;;;;;6130830;23;20009;-79
2022/08/20 03:36:30;;;;;;;12.50;8.20;;;17.10;99.90;;;;;;6157457;23;20016;-78
2022/08/20 03:38:59;;;;;;;14.25;8.07;;;17.10;99.90;;;;;;6130979;23;20096;-78
2022/08/20 03:41:25;;;;;;;13.02;8.25;;;17.10;99.90;;;;;;6131041;23;20013;-79
2022/08/20 03:43:50;;;;;;;10.98;8.25;;;17.10;99.90;;;;;;6155533;23;20755;-79
2022/08/20 03:46:16;;;;;;;11.85;8.52;;;17.00;99.90;;;;;;6155532;23;20085;-79
2022/08/20 03:48:42;;;;;;;15.07;8.75;;;16.90;99.90;;;;;;6155157;23;20442;-78
2022/08/20 03:51:08;;;;;;;14.13;9.50;;;16.80;99.90;;;;;;6155216;23;20009;-79
2022/08/20 03:53:35;;;;;;;15.65;9.23;;;16.70;99.90;;;;;;6155437;23;20426;-79
2022/08/20 03:56:04;;;;;;;15.60;8.90;;;16.60;99.90;;;;;;6156989;23;20526;-79
2022/08/20 03:58:32;;;;;;;12.80;8.50;;;16.60;99.90;;;;;;6156442;23;20008;-79
2022/08/20 04:00:57;;;;;;;10.98;8.57;;;16.50;99.90;;;;;;6154723;23;20449;-79
2022/08/20 04:03:24;;;;;;;11.30;8.30;;;16.50;99.90;;;;;;6154625;23;20092;-79
2022/08/20 04:05:51;;;;;;;12.52;8.45;;;16.40;99.90;;;;;;6155338;23;20017;-79
2022/08/20 04:08:22;;;;;;;11.60;8.07;;;16.30;99.90;;;;;;6154754;23;20052;-79
2022/08/20 04:11:41;;;;;;;11.70;9.45;;;16.30;99.90;;;;;;6156396;23;20040;-79
2022/08/20 04:14:08;;;;;;;11.40;8.57;;;16.20;99.90;;;;;;6154683;23;20479;-79
2022/08/20 04:16:34;;;;;;;11.10;8.27;;;16.20;99.90;;;;;;6154718;23;20013;-79
2022/08/20 04:19:09;;;;;;;10.70;7.97;;;16.10;99.90;;;;;;6156229;23;20031;-78
2022/08/20 04:21:35;;;;;;;10.02;8.00;;;16.00;99.90;;;;;;6154514;23;20500;-79
2022/08/20 04:24:03;;;;;;;11.07;8.38;;;16.00;99.90;;;;;;6129650;23;20366;-78
2022/08/20 04:26:29;;;;;;;14.82;8.00;;;15.90;99.90;;;;;;6129702;23;20096;-77
2022/08/20 04:29:24;;;;;;;12.77;8.25;;;15.90;99.90;;;;;;6155923;23;20009;-78
2022/08/20 04:31:51;;;;;;;12.27;8.18;;;15.90;99.90;;;;;;6130109;23;20010;-78
2022/08/20 04:34:17;;;;;;;11.73;9.30;;;15.90;99.90;;;;;;6154511;23;20326;-78
2022/08/20 04:36:46;;;;;;;10.57;8.23;;;15.90;99.90;;;;;;6154066;23;20029;-77
2022/08/20 04:39:13;;;;;;;12.50;8.20;;;16.00;99.90;;;;;;6154583;23;20088;-77
2022/08/20 04:41:40;;;;;;;12.20;7.68;;;16.00;99.90;;;;;;6154522;23;20009;-78
2022/08/20 04:44:06;;;;;;;10.57;7.90;;;16.00;99.90;;;;;;6154082;23;20419;-77
2022/08/20 04:47:25;;;;;;;16.90;8.23;;;16.10;99.90;;;;;;6154331;23;20605;-78
2022/08/20 04:49:50;;;;;;;12.57;7.30;;;16.20;99.90;;;;;;6129763;23;20005;-78
2022/08/20 04:52:17;;;;;;;11.55;7.95;;;16.30;99.90;;;;;;6154550;23;20068;-78
2022/08/20 04:54:43;;;;;;;13.75;8.25;;;16.40;99.90;;;;;;6129804;23;20005;-78
2022/08/20 04:57:09;;;;;;;12.60;7.80;;;16.50;99.90;;;;;;6130082;23;20020;-78
2022/08/20 04:59:50;;;;;;;12.98;7.93;;;16.50;99.90;;;;;;6156228;23;20044;-78
2022/08/20 05:02:17;;;;;;;10.38;7.40;;;16.60;99.90;;;;;;6155056;23;20379;-78
2022/08/20 05:05:01;;;;;;;20.38;7.55;;;16.60;99.90;;;;;;6155905;23;20012;-77
2022/08/20 05:07:27;;;;;;;16.45;8.90;;;16.70;99.90;;;;;;6154069;23;20059;-78
2022/08/20 05:09:52;;;;;;;9.65;7.35;;;16.70;99.90;;;;;;6154964;23;20426;-78
2022/08/20 05:13:14;;;;;;;8.82;6.80;;;16.80;99.90;;;;;;6156304;23;20005;-78
2022/08/20 05:15:39;;;;;;;12.05;6.75;;;16.90;99.90;;;;;;6156291;23;20442;-78
2022/08/20 05:18:06;;;;;;;10.23;7.13;;;16.90;99.90;;;;;;6130018;23;20013;-78
2022/08/20 05:20:39;;;;;;;13.02;7.47;;;17.00;99.90;;;;;;6154541;23;20014;-78
2022/08/20 05:23:07;;;;;;;9.35;7.32;;;17.10;99.90;;;;;;6155728;23;20335;-78
2022/08/20 05:25:33;;;;;;;9.65;6.88;;;17.10;99.90;;;;;;6154396;23;20088;-78
2022/08/20 05:28:08;;;;;;;14.07;6.97;;;17.20;99.90;;;;;;6154005;23;20005;-78
2022/08/20 05:30:36;;;;;;;9.20;7.63;;;17.30;99.90;;;;;;6156006;23;20322;-78
2022/08/20 05:33:03;;;;;;;13.52;6.40;;;17.30;99.90;;;;;;6154171;23;20013;-78
2022/08/20 05:35:33;;;;;;;8.65;7.05;;;17.40;99.90;;;;;;6153890;23;20016;-78
2022/08/20 05:38:00;;;;;;;8.52;6.35;;;17.40;99.90;;;;;;6155331;23;20716;-78
2022/08/20 05:40:27;;;;;;;8.30;6.97;;;17.40;99.90;;;;;;6153383;23;20423;-78
2022/08/20 05:42:59;;;;;;;14.48;7.20;;;17.40;99.90;;;;;;6152352;23;20017;-78
2022/08/20 05:45:25;;;;;;;8.98;6.10;;;17.50;99.90;;;;;;6129187;23;20021;-78
2022/08/20 05:47:51;;;;;;;9.57;6.35;;;17.50;99.90;;;;;;6153444;23;20009;-78
2022/08/20 05:50:17;;;;;;;12.20;6.30;;;17.50;99.90;;;;;;6154841;23;20089;-78
2022/08/20 05:52:44;;;;;;;7.38;6.05;;;17.60;99.90;;;;;;6153197;23;20088;-78
2022/08/20 05:55:14;;;;;;;10.00;6.15;;;17.70;99.90;;;;;;6153330;23;20041;-78
2022/08/20 05:57:41;;;;;;;7.95;5.28;;;17.80;99.90;;;;;;6129362;23;20005;-78
2022/08/20 06:00:10;;;;;;;10.73;5.82;;;17.80;99.90;;;;;;6128793;23;20005;-78
2022/08/20 06:05:26;;;;;;;6.70;5.18;;;17.90;99.90;;;;;;6153704;23;20014;-77
2022/08/20 06:07:52;;;;;;;7.18;5.03;;;17.90;99.90;;;;;;6128906;23;20013;-78
2022/08/20 06:10:18;;;;;;;9.98;4.85;;;18.00;99.90;;;;;;6153141;23;20006;-78
2022/08/20 06:12:44;;;;;;;11.57;5.35;;;18.10;99.90;;;;;;6153965;23;20081;-77
2022/08/20 06:15:11;;;;;;;11.93;5.20;;;18.10;99.90;;;;;;6153530;23;20033;-78
2022/08/20 06:17:38;;;;;;;5.75;4.72;;;18.10;99.90;;;;;;6153546;23;20439;-78
2022/08/20 06:20:06;;;;;;;7.80;4.82;;;18.10;99.90;;;;;;6152609;23;20010;-78
2022/08/20 06:22:32;;;;;;;8.40;4.63;;;18.10;99.90;;;;;;6153492;23;20006;-78
2022/08/20 06:24:59;;;;;;;7.63;4.57;;;18.00;99.90;;;;;;6153240;23;20513;-78
2022/08/20 06:27:25;;;;;;;7.68;5.53;;;18.00;99.90;;;;;;6128033;23;20013;-78
2022/08/20 06:29:52;;;;;;;6.07;4.95;;;18.00;99.90;;;;;;6153474;23;20085;-78
2022/08/20 06:32:20;;;;;;;5.47;4.45;;;18.00;99.90;;;;;;6128998;23;20013;-78
2022/08/20 06:39:30;;;;;;;9.45;4.50;;;18.10;99.90;;;;;;6155051;23;20021;-78
2022/08/20 06:41:57;;;;;;;10.95;5.03;;;18.20;99.90;;;;;;6153903;23;20016;-78
2022/08/20 06:44:23;;;;;;;5.57;4.82;;;18.10;99.90;;;;;;6155137;23;20041;-78
2022/08/20 06:46:49;;;;;;;11.80;5.20;;;18.10;99.90;;;;;;6153076;23;20009;-78
2022/08/20 06:49:14;;;;;;;8.10;5.47;;;18.10;99.90;;;;;;6155211;23;19997;-77
2022/08/20 06:51:40;;;;;;;7.07;5.03;;;18.10;99.90;;;;;;6129025;23;20679;-78
2022/08/20 06:54:18;;;;;;;8.88;4.82;;;18.10;99.90;;;;;;6128234;23;20045;-78
2022/08/20 06:56:44;;;;;;;10.27;5.32;;;18.20;99.90;;;;;;6154967;23;20072;-78
2022/08/20 06:59:28;;;;;;;8.05;4.80;;;18.30;99.90;;;;;;6128586;23;20009;-78
2022/08/20 07:01:55;;;;;;;9.50;4.57;;;18.30;99.90;;;;;;6154684;23;20013;-78
2022/08/20 07:04:25;;;;;;;5.65;4.57;;;18.50;99.90;;;;;;6156391;23;20657;-78
2022/08/20 07:06:52;;;;;;;5.10;4.55;;;18.70;99.90;;;;;;6155088;23;20013;-78
2022/08/20 07:09:20;;;;;;;11.55;5.60;;;18.80;99.90;;;;;;6130670;23;20012;-78
2022/08/20 07:11:47;;;;;;;9.73;5.10;;;19.00;99.90;;;;;;6155370;23;20009;-78
2022/08/20 07:14:14;;;;;;;6.63;5.07;;;19.20;99.90;;;;;;6156585;23;20001;-78
2022/08/20 07:16:39;;;;;;;7.32;4.65;;;19.30;99.90;;;;;;6157146;23;20006;-78
2022/08/20 07:19:07;;;;;;;9.40;4.22;;;19.40;99.90;;;;;;6156874;23;20016;-78
2022/08/20 07:21:33;;;;;;;7.15;4.85;;;19.40;99.90;;;;;;6130441;23;20386;-78
2022/08/20 07:23:59;;;;;;;6.10;4.00;;;19.50;99.90;;;;;;6154905;23;20088;-83
2022/08/20 07:26:25;;;;;;;5.70;4.43;;;19.70;99.90;;;;;;6130286;23;20013;-84
2022/08/20 07:28:53;;;;;;;7.40;4.50;;;19.70;99.90;;;;;;6154988;23;20136;-83
2022/08/20 07:34:50;;;;;;;5.18;4.00;;;19.80;99.90;;;;;;6156610;23;20008;-83
2022/08/20 07:37:15;;;;;;;5.88;3.90;;;20.00;99.90;;;;;;6155103;23;20010;-83
2022/08/20 07:39:41;;;;;;;5.72;4.10;;;20.20;99.90;;;;;;6130884;23;20020;-83
2022/08/20 07:42:07;;;;;;;5.15;4.05;;;20.30;99.90;;;;;;6131222;23;20775;-83
2022/08/20 07:44:32;;;;;;;5.03;4.03;;;20.40;99.90;;;;;;6130765;23;20319;-83
2022/08/20 07:46:58;;;;;;;5.20;3.55;;;20.40;99.90;;;;;;6130645;23;20064;-83
2022/08/20 07:49:24;;;;;;;4.78;3.80;;;20.40;99.90;;;;;;6155043;23;20057;-83
2022/08/20 07:51:50;;;;;;;8.98;4.55;;;20.50;99.90;;;;;;6130207;23;20014;-83
2022/08/20 07:54:15;;;;;;;6.20;4.75;;;20.70;99.90;;;;;;6130000;23;20043;-83
2022/08/20 07:56:41;;;;;;;5.03;4.03;;;20.80;99.90;;;;;;6130916;23;20514;-83
2022/08/20 07:59:07;;;;;;;6.55;4.07;;;20.80;99.90;;;;;;6155155;23;20014;-83
2022/08/20 08:01:32;;;;;;;7.72;4.78;;;20.80;99.90;;;;;;6154780;23;20009;-83
2022/08/20 08:03:59;;;;;;;5.47;4.05;;;20.80;99.90;;;;;;6153681;23;20660;-83
2022/08/20 08:06:34;;;;;;;10.32;4.72;;;20.80;99.90;;;;;;6130624;23;20382;-83
2022/08/20 08:09:05;;;;;;;5.05;4.15;;;20.70;99.90;;;;;;6130254;23;20339;-83
2022/08/20 08:11:36;;;;;;;5.95;4.60;;;20.90;99.90;;;;;;6155235;23;20096;-83
2022/08/20 08:14:05;;;;;;;5.35;4.20;;;20.90;99.90;;;;;;6130217;23;20346;-83
2022/08/20 08:16:31;;;;;;;8.63;5.80;;;20.80;99.90;;;;;;6130797;23;20036;-84
2022/08/20 08:18:57;;;;;;;8.10;4.35;;;21.10;99.90;;;;;;6130582;23;20009;-83
2022/08/20 08:21:23;;;;;;;9.15;5.03;;;21.30;99.90;;;;;;6155526;23;20041;-83
2022/08/20 08:23:49;;;;;;;10.88;5.35;;;21.30;99.90;;;;;;6154859;23;20008;-83
2022/08/20 08:26:15;;;;;;;8.65;4.93;;;21.20;99.90;;;;;;6130170;23;20346;-83
2022/08/20 08:28:43;;;;;;;4.82;4.43;;;21.00;99.90;;;;;;6130139;23;20088;-83
2022/08/20 08:31:09;;;;;;;7.57;4.07;;;20.70;99.90;;;;;;6130400;23;20005;-83
2022/08/20 08:33:35;;;;;;;5.75;4.00;;;20.70;99.90;;;;;;6154793;23;20006;-83
2022/08/20 08:36:10;;;;;;;5.88;3.80;;;20.80;99.90;;;;;;6154706;23;20096;-83
2022/08/20 08:38:38;;;;;;;5.82;3.58;;;20.90;99.90;;;;;;6129276;23;20337;-83
2022/08/20 08:41:11;;;;;;;7.93;3.10;;;21.10;99.90;;;;;;6154708;23;20005;-83
2022/08/20 08:43:37;;;;;;;4.18;3.28;;;21.40;99.90;;;;;;6154319;23;20430;-84
2022/08/20 08:46:09;;;;;;;6.70;3.30;;;21.60;99.90;;;;;;6130195;23;20012;-83
2022/08/20 08:48:42;;;;;;;5.18;3.47;;;21.60;99.90;;;;;;6154478;23;20014;-84
2022/08/20 08:51:13;;;;;;;6.15;4.03;;;21.30;99.90;;;;;;6154341;23;20009;-84
2022/08/20 08:53:47;;;;;;;;;;;21.30;99.90;;;;;;6129694;23;20005;-84
2022/08/20 08:56:13;;;;;;;4.80;3.20;;;21.30;99.90;;;;;;6154073;23;19987;-84
2022/08/20 08:58:40;;;;;;;4.72;3.50;;;21.40;99.90;;;;;;6129553;23;20012;-84
2022/08/20 09:01:16;;;;;;;4.57;3.65;;;21.60;99.90;;;;;;6154412;23;20009;-84
2022/08/20 09:03:46;;;;;;;4.75;3.70;;;21.60;99.90;;;;;;6155202;23;20009;-84
2022/08/20 09:06:15;;;;;;;5.80;3.43;;;22.00;99.90;;;;;;6154089;23;20621;-84
2022/08/20 09:08:47;;;;;;;6.22;4.35;;;22.60;99.90;;;;;;6129303;23;20275;-84
2022/08/20 09:11:14;;;;;;;7.20;3.17;;;23.10;99.90;;;;;;6129826;23;20029;-83
2022/08/20 09:13:42;;;;;;;5.85;3.35;;;23.00;99.90;;;;;;6152918;23;20067;-83
2022/08/20 09:16:08;;;;;;;5.30;3.63;;;22.40;99.90;;;;;;6153519;23;20016;-83
2022/08/20 09:18:34;;;;;;;6.82;3.83;;;21.80;99.90;;;;;;6153880;23;20733;-83
2022/08/20 09:20:59;;;;;;;4.38;3.45;;;21.50;99.90;;;;;;6129075;23;20101;-83
2022/08/20 09:23:25;;;;;;;5.93;4.32;;;21.80;99.90;;;;;;6129244;23;20014;-84
2022/08/20 09:25:51;;;;;;;4.55;3.22;;;22.60;99.90;;;;;;6129087;23;20005;-84
2022/08/20 09:28:17;;;;;;;9.05;3.75;;;23.90;99.90;;;;;;6153412;23;20089;-84
2022/08/20 09:30:42;;;;;;;7.45;3.50;;;25.70;99.90;;;;;;6153427;23;20013;-84
2022/08/20 09:33:08;;;;;;;5.85;2.97;;;25.80;99.90;;;;;;6128908;23;20009;-84
2022/08/20 09:35:34;;;;;;;4.55;2.42;;;25.70;99.90;;;;;;6154380;23;20013;-84
2022/08/20 09:38:34;;;;;;;4.13;2.97;;;26.60;99.90;;;;;;6129095;23;20092;-84
2022/08/20 09:40:59;;;;;;;3.60;3.28;;;26.80;99.90;;;;;;6154197;23;20334;-84
2022/08/20 09:43:25;;;;;;;3.38;3.05;;;26.00;99.90;;;;;;6128944;23;20014;-83
2022/08/20 09:45:51;;;;;;;7.00;3.00;;;24.70;99.90;;;;;;6129364;23;20092;-84
2022/08/20 09:48:17;;;;;;;3.88;3.40;;;23.80;99.90;;;;;;6128875;23;20013;-84
2022/08/20 09:50:47;;;;;;;7.25;3.60;;;23.20;99.90;;;;;;6153756;23;20010;-84
2022/08/20 09:53:14;;;;;;;6.00;4.32;;;22.80;99.90;;;;;;6129430;23;20013;-84
2022/08/20 09:55:45;;;;;;;8.13;3.95;;;22.60;99.90;;;;;;6129512;23;20452;-83
2022/08/20 09:58:20;;;;;;;;;;;23.00;99.90;;;;;;6129915;23;20012;-84
2022/08/20 10:00:46;;;;;;;4.10;3.35;;;23.40;99.90;;;;;;6129502;23;19912;-84
2022/08/20 10:03:12;;;;;;;4.70;3.33;;;23.90;99.90;;;;;;6153452;23;20104;-83
2022/08/20 10:05:38;;;;;;;5.75;3.33;;;24.10;99.90;;;;;;6154000;23;20026;-84
2022/08/20 10:08:06;;;;;;;4.90;3.65;;;24.00;99.90;;;;;;6129234;23;20017;-84
2022/08/20 10:10:32;;;;;;;11.50;4.13;;;23.60;99.90;;;;;;6129465;23;20422;-87
2022/08/20 10:12:58;;;;;;;17.60;6.07;;;22.80;99.90;;;;;;6153762;23;20016;-86
2022/08/20 10:15:23;;;;;;;17.70;7.60;;;21.30;99.90;;;;;;6129309;23;20024;-84
2022/08/20 10:17:49;;;;;;;13.30;7.13;;;19.90;99.90;;;;;;6129226;23;20009;-82
2022/08/20 10:20:17;;;;;;;12.88;5.80;;;19.20;99.90;;;;;;6153490;23;20040;-83
2022/08/20 10:22:43;;;;;;;9.95;6.75;;;18.40;99.90;;;;;;6128415;23;20014;-83
2022/08/20 10:25:09;;;;;;;25.63;9.20;;;17.90;99.90;;;;;;6128290;23;20017;-84
2022/08/20 10:27:36;;;;;;;19.08;9.07;;;17.50;99.90;;;;;;6153875;23;20009;-86
2022/08/20 10:30:05;;;;;;;18.40;9.55;;;17.40;99.90;;;;;;6129144;23;20044;-84
2022/08/20 10:32:31;;;;;;;23.10;10.80;;;17.50;99.90;;;;;;6129693;23;20079;-84
2022/08/20 10:34:57;;;;;;;21.00;9.95;;;17.50;99.90;;;;;;6153496;23;20076;-85
2022/08/20 10:37:24;;;;;;;16.75;9.60;;;17.40;99.90;;;;;;6128543;23;20017;-86
2022/08/20 10:39:51;;;;;;;15.90;11.13;;;17.30;99.90;;;;;;6131559;23;20006;-84
2022/08/20 10:42:16;;;;;;;26.65;12.90;;;17.20;99.90;;;;;;6156135;23;20064;-85
2022/08/20 10:44:42;;;;;;;18.30;13.40;;;17.30;99.90;;;;;;6130197;23;20013;-85
2022/08/20 10:47:25;;;;;;;17.42;13.55;;;17.40;99.90;;;;;;6130667;23;20013;-83
2022/08/20 10:49:56;;;;;;;21.80;14.05;;;17.30;99.90;;;;;;6154853;23;20029;-85
2022/08/20 10:52:21;;;;;;;17.45;11.80;;;17.30;99.90;;;;;;6130428;23;20010;-84
2022/08/20 10:54:47;;;;;;;14.60;10.35;;;17.50;99.90;;;;;;6154812;23;20055;-84
2022/08/20 10:57:19;;;;;;;15.98;9.68;;;17.60;99.90;;;;;;6130426;23;20021;-84
2022/08/20 10:59:47;;;;;;;19.83;11.70;;;17.60;99.90;;;;;;6154912;23;20050;-85
2022/08/20 11:02:13;;;;;;;15.93;11.15;;;17.70;99.90;;;;;;6155166;23;20137;-85
2022/08/20 11:04:42;;;;;;;16.23;11.60;;;17.60;99.90;;;;;;6130510;23;20018;-84
2022/08/20 11:07:18;;;;;;;20.63;13.52;;;17.60;99.90;;;;;;6130133;23;20041;-86
2022/08/20 11:09:46;;;;;;;19.00;13.52;;;17.60;99.90;;;;;;6130349;23;20012;-86
2022/08/20 11:12:12;;;;;;;16.77;13.95;;;17.80;99.90;;;;;;6155517;23;19998;-86
2022/08/20 11:14:38;;;;;;;16.50;12.82;;;18.00;99.90;;;;;;6130259;23;20062;-86
2022/08/20 11:17:04;;;;;;;20.33;14.88;;;17.90;99.90;;;;;;6155305;23;20017;-85
2022/08/20 11:19:31;;;;;;;20.75;14.20;;;17.90;99.90;;;;;;6130652;23;20097;-86
2022/08/20 11:21:56;;;;;;;21.35;15.50;;;18.00;99.90;;;;;;6155117;23;20036;-85
2022/08/20 11:24:22;;;;;;;21.70;16.77;;;18.10;99.90;;;;;;6155190;23;20449;-85
2022/08/20 11:26:49;;;;;;;22.15;17.85;;;18.40;99.90;;;;;;6130587;23;20623;-85
2022/08/20 11:29:16;;;;;;;25.35;17.25;;;18.60;99.90;;;;;;6130789;23;20071;-85
2022/08/20 11:31:41;;;;;;;18.60;15.45;;;18.80;99.90;;;;;;6156865;23;20006;-85
2022/08/20 11:34:07;;;;;;;19.60;15.77;;;19.10;99.90;;;;;;6154720;23;20016;-86
2022/08/20 11:36:33;;;;;;;18.17;15.32;;;19.10;99.90;;;;;;6156392;23;20089;-85
2022/08/20 11:38:59;;;;;;;20.23;12.77;;;19.40;99.90;;;;;;6130875;23;20063;-86
2022/08/20 11:41:25;;;;;;;16.35;14.20;;;19.70;99.90;;;;;;6130802;23;20092;-86
2022/08/20 11:43:50;;;;;;;14.32;11.88;;;19.80;99.90;;;;;;6130392;23;20012;-85
2022/08/20 11:46:16;;;;;;;12.38;10.68;;;20.20;99.90;;;;;;6130535;23;20330;-86
2022/08/20 11:48:42;;;;;;;11.60;9.60;;;20.30;99.90;;;;;;6154630;23;20009;-86
2022/08/20 11:51:07;;;;;;;12.27;10.38;;;20.50;99.90;;;;;;6130620;23;20445;-86
2022/08/20 11:54:20;;;;;;;10.23;8.80;;;20.60;99.90;;;;;;6130569;23;20096;-86
2022/08/20 11:56:46;;;;;;;11.73;8.90;;;20.60;99.90;;;;;;6130841;23;20021;-86
2022/08/20 11:59:24;;;;;;;9.30;8.05;;;20.70;99.90;;;;;;6130908;23;20717;-87
2022/08/20 12:01:52;;;;;;;9.20;7.40;;;20.90;99.90;;;;;;6130688;23;20373;-86
2022/08/20 12:04:19;;;;;;;15.30;7.70;;;21.20;99.90;;;;;;6130646;23;20096;-86
2022/08/20 12:06:45;;;;;;;7.00;4.45;;;21.60;99.90;;;;;;6130779;23;20017;-86
2022/08/20 12:09:11;;;;;;;7.18;4.97;;;21.80;99.90;;;;;;6155161;23;20009;-86
2022/08/20 12:11:36;;;;;;;6.07;4.90;;;22.00;99.90;;;;;;6129496;23;20012;-86
2022/08/20 12:14:02;;;;;;;5.10;4.60;;;22.40;99.90;;;;;;6129526;23;20010;-85
2022/08/20 12:16:28;;;;;;;6.18;5.43;;;22.60;99.90;;;;;;6129471;23;20060;-85
2022/08/20 12:18:54;;;;;;;4.68;4.18;;;22.90;99.90;;;;;;6153662;23;20014;-85
2022/08/20 12:21:35;;;;;;;5.18;4.43;;;23.10;99.90;;;;;;6129606;23;20013;-84
2022/08/20 12:24:01;;;;;;;4.10;3.55;;;23.20;99.90;;;;;;6156015;23;20373;-85
2022/08/20 12:26:26;;;;;;;5.90;4.70;;;23.30;99.90;;;;;;6129869;23;20037;-84
2022/08/20 12:28:54;;;;;;;4.72;3.75;;;23.50;99.90;;;;;;6154701;23;20012;-84
2022/08/20 12:31:20;;;;;;;3.97;3.58;;;23.90;99.90;;;;;;6156453;23;19994;-84
2022/08/20 12:33:45;;;;;;;4.65;3.10;;;23.60;99.90;;;;;;6154473;23;20119;-84
2022/08/20 12:36:11;;;;;;;4.50;3.50;;;23.50;99.90;;;;;;6130203;23;20449;-83
2022/08/20 12:39:08;;;;;;;3.88;3.47;;;23.20;99.90;;;;;;6130194;23;20020;-84
2022/08/20 12:41:34;;;;;;;5.93;3.53;;;23.10;99.90;;;;;;6130119;23;20036;-83
2022/08/20 12:44:05;;;;;;;4.15;3.20;;;23.00;99.90;;;;;;6154565;23;20017;-83
2022/08/20 12:46:31;;;;;;;4.15;3.75;;;23.10;99.90;;;;;;6129554;23;20009;-83
2022/08/20 12:48:57;;;;;;;5.00;3.95;;;23.00;99.90;;;;;;6130090;23;20002;-83
2022/08/20 12:51:31;;;;;;;4.53;3.78;;;23.50;99.90;;;;;;6130240;23;20017;-83
2022/08/20 12:53:57;;;;;;;7.45;4.10;;;23.20;99.90;;;;;;6154524;23;20002;-83
2022/08/20 12:56:23;;;;;;;6.43;4.13;;;22.80;99.90;;;;;;6129921;23;20028;-83
2022/08/20 12:58:48;;;;;;;5.35;4.50;;;22.70;99.90;;;;;;6130314;23;20430;-83
2022/08/20 13:01:15;;;;;;;4.72;4.28;;;22.90;99.90;;;;;;6130123;23;20013;-83
2022/08/20 13:03:41;;;;;;;4.15;3.25;;;23.30;99.90;;;;;;6154352;23;20005;-83
2022/08/20 13:06:07;;;;;;;4.10;3.45;;;23.80;99.90;;;;;;6130165;23;20020;-83
2022/08/20 13:08:32;;;;;;;3.20;2.90;;;24.60;99.90;;;;;;6154395;23;20009;-83